createdAt,value
2019-04-29T00:00:11.445Z,33.01
2019-04-29T00:01:11.426Z,34.01
2019-04-29T00:02:11.413Z,33.91
2019-04-29T00:03:11.575Z,32.71
2019-04-29T00:04:12.075Z,32.81
2019-04-29T00:05:11.392Z,33.11
2019-04-29T00:06:11.373Z,33.11
2019-04-29T00:07:11.357Z,33.21
2019-04-29T00:08:11.373Z,32.91
2019-04-29T00:09:12.092Z,32.91
2019-04-29T00:10:11.586Z,33.01
2019-04-29T00:11:11.315Z,33.01
2019-04-29T00:12:12.078Z,33.11
2019-04-29T00:13:11.300Z,33.01
2019-04-29T00:14:11.302Z,33.01
2019-04-29T00:15:11.298Z,33.01
2019-04-29T00:16:11.273Z,32.91
2019-04-29T00:17:11.246Z,34.01
2019-04-29T00:18:11.241Z,33.01
2019-04-29T00:19:11.244Z,32.71
2019-04-29T00:20:11.217Z,32.81
2019-04-29T00:21:11.594Z,33.11
2019-04-29T00:22:12.096Z,33.81
2019-04-29T00:23:11.190Z,33.11
2019-04-29T00:24:11.189Z,32.81
2019-04-29T00:25:11.161Z,33.31
2019-04-29T00:26:11.178Z,33.11
2019-04-29T00:27:12.083Z,33.31
2019-04-29T00:28:11.147Z,33.11
2019-04-29T00:29:11.150Z,33.11
2019-04-29T00:30:11.110Z,33.11
2019-04-29T00:31:11.115Z,33.23
2019-04-29T00:32:11.235Z,33.41
2019-04-29T00:33:11.603Z,33.31
2019-04-29T00:34:11.080Z,33.41
2019-04-29T00:35:11.061Z,33.41
2019-04-29T00:36:11.057Z,33.41
2019-04-29T00:37:11.035Z,33.11
2019-04-29T00:38:11.024Z,33.31
2019-04-29T00:39:11.027Z,33.01
2019-04-29T00:40:11.004Z,33.01
2019-04-29T00:41:11.091Z,33.01
2019-04-29T00:42:10.998Z,33.41
2019-04-29T00:43:10.967Z,33.01
2019-04-29T00:44:11.597Z,33.31
2019-04-29T00:45:10.953Z,33.31
2019-04-29T00:46:10.950Z,33.21
2019-04-29T00:47:10.928Z,33.01
2019-04-29T00:48:10.913Z,33.31
2019-04-29T00:49:10.905Z,33.11
2019-04-29T00:50:10.894Z,33.31
2019-04-29T00:51:10.908Z,33.11
2019-04-29T00:52:10.869Z,33.21
2019-04-29T00:53:10.858Z,33.01
2019-04-29T00:54:12.363Z,33.61
2019-04-29T00:55:10.838Z,33.41
2019-04-29T00:56:10.837Z,33.11
2019-04-29T00:57:11.580Z,33.01
2019-04-29T00:58:10.806Z,33.61
2019-04-29T00:59:10.793Z,33.41
2019-04-29T01:00:10.784Z,33.11
2019-04-29T01:01:10.786Z,33.11
2019-04-29T01:02:11.582Z,33.41
2019-04-29T01:03:10.749Z,33.11
2019-04-29T01:04:11.579Z,33.12
2019-04-29T01:05:10.781Z,33.41
2019-04-29T01:06:10.742Z,33.41
2019-04-29T01:07:11.596Z,33.41
2019-04-29T01:08:10.698Z,33.43
2019-04-29T01:09:10.696Z,33.41
2019-04-29T01:10:10.678Z,33.71
2019-04-29T01:11:10.681Z,33.11
2019-04-29T01:12:10.653Z,33.11
2019-04-29T01:13:10.642Z,33.31
2019-04-29T01:14:10.632Z,33.11
2019-04-29T01:15:10.618Z,33.11
2019-04-29T01:16:10.610Z,33.41
2019-04-29T01:17:10.607Z,33.41
2019-04-29T01:18:10.586Z,33.31
2019-04-29T01:19:10.581Z,33.31
2019-04-29T01:20:10.565Z,33.31
2019-04-29T01:21:10.554Z,34.01
2019-04-29T01:22:10.555Z,34.03
2019-04-29T01:23:10.535Z,33.71
2019-04-29T01:24:10.518Z,33.51
2019-04-29T01:25:10.514Z,33.71
2019-04-29T01:26:10.505Z,33.21
2019-04-29T01:27:10.500Z,33.41
2019-04-29T01:28:10.474Z,33.71
2019-04-29T01:29:10.466Z,33.61
2019-04-29T01:30:10.459Z,33.51
2019-04-29T01:31:11.087Z,33.91
2019-04-29T01:32:10.591Z,33.61
2019-04-29T01:33:10.421Z,33.31
2019-04-29T01:34:10.414Z,33.91
2019-04-29T01:35:10.406Z,33.21
2019-04-29T01:36:10.396Z,34.01
2019-04-29T01:37:10.609Z,33.21
2019-04-29T01:38:10.367Z,33.93
2019-04-29T01:39:10.361Z,33.23
2019-04-29T01:40:10.362Z,33.71
2019-04-29T01:41:11.084Z,33.31
2019-04-29T01:42:10.344Z,33.21
2019-04-29T01:43:10.331Z,33.31
2019-04-29T01:44:10.320Z,33.31
2019-04-29T01:45:10.311Z,33.01
2019-04-29T01:46:10.286Z,33.31
2019-04-29T01:47:10.282Z,32.93
2019-04-29T01:48:11.083Z,33.03
2019-04-29T01:49:10.251Z,33.41
2019-04-29T01:50:10.272Z,33.71
2019-04-29T01:51:10.235Z,33.11
2019-04-29T01:52:10.232Z,32.91
2019-04-29T01:53:10.216Z,33.51
2019-04-29T01:54:11.083Z,33.31
2019-04-29T01:55:10.188Z,33.12
2019-04-29T01:56:10.194Z,33.03
2019-04-29T01:57:10.182Z,32.82
2019-04-29T01:58:10.159Z,33.61
2019-04-29T01:59:10.142Z,32.81
2019-04-29T02:00:12.284Z,33.12
2019-04-29T02:01:10.134Z,32.81
2019-04-29T02:02:10.128Z,32.81
2019-04-29T02:03:10.097Z,32.71
2019-04-29T02:04:11.090Z,33.73
2019-04-29T02:05:10.074Z,32.81
2019-04-29T02:06:10.126Z,33.53
2019-04-29T02:07:10.073Z,33.53
2019-04-29T02:08:10.054Z,32.73
2019-04-29T02:09:10.318Z,32.71
2019-04-29T02:10:10.026Z,32.82
2019-04-29T02:11:10.606Z,32.93
2019-04-29T02:12:10.011Z,33.53
2019-04-29T02:13:09.997Z,33.43
2019-04-29T02:14:09.991Z,33.12
2019-04-29T02:15:09.978Z,33.41
2019-04-29T02:16:10.604Z,32.73
2019-04-29T02:17:09.941Z,32.73
2019-04-29T02:18:10.116Z,33.53
2019-04-29T02:19:10.584Z,33.43
2019-04-29T02:20:10.584Z,32.91
2019-04-29T02:21:10.599Z,33.41
2019-04-29T02:22:09.893Z,33.43
2019-04-29T02:23:09.922Z,33.61
2019-04-29T02:24:09.870Z,32.73
2019-04-29T02:25:10.588Z,32.71
2019-04-29T02:26:09.848Z,32.82
2019-04-29T02:27:09.861Z,32.93
2019-04-29T02:28:10.097Z,33.21
2019-04-29T02:29:10.589Z,33.23
2019-04-29T02:30:10.594Z,32.82
2019-04-29T02:31:09.796Z,33.21
2019-04-29T02:32:09.785Z,33.03
2019-04-29T02:33:10.119Z,33.23
2019-04-29T02:34:10.619Z,33.23
2019-04-29T02:35:09.764Z,33.23
2019-04-29T02:36:09.740Z,33.23
2019-04-29T02:37:09.752Z,33.12
2019-04-29T02:38:09.737Z,33.62
2019-04-29T02:39:10.598Z,33.03
2019-04-29T02:40:09.698Z,33.12
2019-04-29T02:41:09.685Z,32.82
2019-04-29T02:42:09.692Z,33.43
2019-04-29T02:43:09.696Z,33.62
2019-04-29T02:44:10.586Z,33.53
2019-04-29T02:45:09.638Z,33.12
2019-04-29T02:46:10.589Z,33.43
2019-04-29T02:47:09.638Z,33.23
2019-04-29T02:48:09.612Z,33.33
2019-04-29T02:49:09.609Z,33.03
2019-04-29T02:50:09.584Z,33.43
2019-04-29T02:51:10.095Z,33.03
2019-04-29T02:52:09.585Z,33.12
2019-04-29T02:53:09.555Z,33.33
2019-04-29T02:54:09.599Z,32.93
2019-04-29T02:55:09.555Z,33.12
2019-04-29T02:56:10.098Z,33.12
2019-04-29T02:57:09.546Z,33.33
2019-04-29T02:58:12.520Z,33.33
2019-04-29T02:59:09.638Z,32.82
2019-04-29T03:00:09.478Z,32.82
2019-04-29T03:01:10.097Z,32.82
2019-04-29T03:02:09.473Z,33.43
2019-04-29T03:03:09.449Z,33.12
2019-04-29T03:04:09.442Z,33.03
2019-04-29T03:05:09.429Z,33.33
2019-04-29T03:06:09.413Z,33.33
2019-04-29T03:07:09.421Z,33.43
2019-04-29T03:08:10.088Z,33.33
2019-04-29T03:09:09.402Z,33.43
2019-04-29T03:10:09.391Z,33.23
2019-04-29T03:11:09.359Z,33.33
2019-04-29T03:12:09.353Z,33.12
2019-04-29T03:13:10.102Z,33.73
2019-04-29T03:14:09.340Z,33.33
2019-04-29T03:15:09.317Z,33.12
2019-04-29T03:16:09.313Z,33.03
2019-04-29T03:17:09.296Z,33.53
2019-04-29T03:18:10.093Z,33.33
2019-04-29T03:19:09.281Z,33.43
2019-04-29T03:20:09.296Z,33.43
2019-04-29T03:21:09.249Z,33.12
2019-04-29T03:22:09.254Z,33.53
2019-04-29T03:23:10.118Z,33.43
2019-04-29T03:24:09.253Z,33.53
2019-04-29T03:25:09.209Z,33.43
2019-04-29T03:26:09.195Z,33.53
2019-04-29T03:27:09.192Z,33.53
2019-04-29T03:28:09.188Z,33.43
2019-04-29T03:29:09.201Z,33.43
2019-04-29T03:30:09.171Z,33.62
2019-04-29T03:31:09.160Z,33.03
2019-04-29T03:32:10.096Z,32.82
2019-04-29T03:33:09.140Z,33.43
2019-04-29T03:34:09.111Z,33.33
2019-04-29T03:35:09.145Z,33.33
2019-04-29T03:36:09.088Z,33.33
2019-04-29T03:37:09.595Z,33.43
2019-04-29T03:38:09.086Z,33.53
2019-04-29T03:39:09.057Z,32.82
2019-04-29T03:40:09.061Z,33.33
2019-04-29T03:41:09.040Z,33.33
2019-04-29T03:42:09.019Z,33.43
2019-04-29T03:43:09.607Z,33.43
2019-04-29T03:44:09.072Z,33.43
2019-04-29T03:45:09.106Z,33.53
2019-04-29T03:46:08.996Z,33.53
2019-04-29T03:47:09.011Z,32.73
2019-04-29T03:48:08.971Z,33.33
2019-04-29T03:49:08.948Z,33.53
2019-04-29T03:50:08.950Z,33.33
2019-04-29T03:51:08.927Z,33.33
2019-04-29T03:52:08.922Z,33.43
2019-04-29T03:53:08.919Z,33.23
2019-04-29T03:54:08.888Z,33.73
2019-04-29T03:55:08.891Z,33.73
2019-04-29T03:56:08.869Z,33.43
2019-04-29T03:57:09.594Z,33.53
2019-04-29T03:58:08.856Z,33.43
2019-04-29T03:59:08.836Z,33.33
2019-04-29T04:00:08.835Z,33.73
2019-04-29T04:01:08.821Z,31.93
2019-04-29T04:02:08.804Z,33.03
2019-04-29T04:03:08.793Z,32.93
2019-04-29T04:04:08.783Z,33.53
2019-04-29T04:05:09.181Z,33.43
2019-04-29T04:06:08.759Z,31.93
2019-04-29T04:07:08.758Z,33.53
2019-04-29T04:08:08.779Z,32.73
2019-04-29T04:09:08.741Z,33.03
2019-04-29T04:10:09.120Z,32.82
2019-04-29T04:11:08.715Z,32.82
2019-04-29T04:12:08.696Z,32.43
2019-04-29T04:13:08.682Z,33.53
2019-04-29T04:14:08.686Z,33.03
2019-04-29T04:15:08.672Z,32.53
2019-04-29T04:16:08.678Z,32.73
2019-04-29T04:17:08.648Z,32.82
2019-04-29T04:18:08.658Z,32.82
2019-04-29T04:19:09.615Z,32.73
2019-04-29T04:20:09.115Z,32.73
2019-04-29T04:21:08.629Z,33.33
2019-04-29T04:22:09.105Z,32.93
2019-04-29T04:23:08.582Z,32.82
2019-04-29T04:24:08.581Z,33.33
2019-04-29T04:25:08.553Z,32.82
2019-04-29T04:26:08.676Z,33.53
2019-04-29T04:27:09.095Z,32.73
2019-04-29T04:28:08.523Z,33.53
2019-04-29T04:29:08.520Z,32.93
2019-04-29T04:30:09.117Z,33.53
2019-04-29T04:31:08.694Z,32.73
2019-04-29T04:32:09.106Z,33.03
2019-04-29T04:33:08.498Z,33.53
2019-04-29T04:34:09.127Z,32.93
2019-04-29T04:35:08.442Z,33.03
2019-04-29T04:36:08.453Z,31.93
2019-04-29T04:37:08.450Z,33.73
2019-04-29T04:38:08.420Z,33.73
2019-04-29T04:39:08.420Z,33.73
2019-04-29T04:40:09.105Z,32.43
2019-04-29T04:41:08.401Z,33.53
2019-04-29T04:42:09.095Z,33.53
2019-04-29T04:43:08.362Z,33.53
2019-04-29T04:44:08.351Z,33.73
2019-04-29T04:45:09.100Z,33.73
2019-04-29T04:46:08.338Z,33.73
2019-04-29T04:47:08.313Z,33.43
2019-04-29T04:48:08.300Z,33.73
2019-04-29T04:49:08.294Z,33.53
2019-04-29T04:50:08.289Z,32.93
2019-04-29T04:51:08.282Z,33.73
2019-04-29T04:52:08.260Z,33.53
2019-04-29T04:53:08.255Z,33.53
2019-04-29T04:54:08.248Z,31.93
2019-04-29T04:55:08.244Z,33.03
2019-04-29T04:56:08.227Z,33.73
2019-04-29T04:57:08.229Z,33.53
2019-04-29T04:58:08.189Z,33.53
2019-04-29T04:59:08.179Z,33.73
2019-04-29T05:00:09.107Z,33.73
2019-04-29T05:01:08.205Z,33.53
2019-04-29T05:02:08.149Z,32.93
2019-04-29T05:03:08.139Z,33.53
2019-04-29T05:04:08.147Z,33.73
2019-04-29T05:05:08.136Z,32.93
2019-04-29T05:06:08.628Z,33.03
2019-04-29T05:07:08.090Z,32.93
2019-04-29T05:08:08.131Z,33.53
2019-04-29T05:09:08.084Z,33.73
2019-04-29T05:10:08.077Z,33.53
2019-04-29T05:11:08.077Z,33.33
2019-04-29T05:12:08.044Z,33.73
2019-04-29T05:13:08.025Z,33.33
2019-04-29T05:14:08.017Z,33.73
2019-04-29T05:15:08.023Z,33.73
2019-04-29T05:16:08.006Z,33.53
2019-04-29T05:17:08.006Z,33.73
2019-04-29T05:18:08.599Z,32.23
2019-04-29T05:19:07.963Z,33.43
2019-04-29T05:20:07.964Z,33.53
2019-04-29T05:21:07.969Z,32.23
2019-04-29T05:22:07.931Z,33.33
2019-04-29T05:23:07.922Z,33.33
2019-04-29T05:24:07.911Z,33.43
2019-04-29T05:25:07.900Z,33.73
2019-04-29T05:26:07.889Z,32.43
2019-04-29T05:27:08.136Z,33.73
2019-04-29T05:28:07.869Z,33.73
2019-04-29T05:29:07.863Z,33.33
2019-04-29T05:30:08.597Z,32.23
2019-04-29T05:31:07.834Z,33.43
2019-04-29T05:32:07.831Z,33.43
2019-04-29T05:33:07.810Z,33.12
2019-04-29T05:34:07.800Z,33.12
2019-04-29T05:35:07.794Z,32.93
2019-04-29T05:36:08.609Z,33.43
2019-04-29T05:37:08.121Z,33.33
2019-04-29T05:38:07.757Z,32.82
2019-04-29T05:39:07.748Z,33.12
2019-04-29T05:40:07.752Z,33.62
2019-04-29T05:41:08.604Z,33.12
2019-04-29T05:42:15.871Z,32.93
2019-04-29T05:43:07.702Z,33.12
2019-04-29T05:44:07.692Z,33.93
2019-04-29T05:45:07.690Z,33.12
2019-04-29T05:46:07.877Z,33.12
2019-04-29T05:47:07.667Z,32.82
2019-04-29T05:48:07.661Z,33.12
2019-04-29T05:49:09.013Z,33.12
2019-04-29T05:50:11.836Z,33.12
2019-04-29T05:51:08.599Z,33.03
2019-04-29T05:52:08.145Z,33.53
2019-04-29T05:53:11.471Z,33.93
2019-04-29T05:54:07.587Z,33.12
2019-04-29T05:55:09.613Z,33.12
2019-04-29T05:56:07.633Z,32.93
2019-04-29T05:57:07.621Z,33.33
2019-04-29T05:58:08.103Z,33.43
2019-04-29T05:59:08.537Z,33.83
2019-04-29T06:00:07.513Z,33.62
2019-04-29T06:01:08.133Z,33.73
2019-04-29T06:02:07.507Z,33.83
2019-04-29T06:03:07.494Z,33.53
2019-04-29T06:04:07.517Z,34.63
2019-04-29T06:05:07.480Z,33.93
2019-04-29T06:06:08.113Z,34.23
2019-04-29T06:07:07.633Z,33.53
2019-04-29T06:08:07.453Z,34.63
2019-04-29T06:09:11.491Z,34.23
2019-04-29T06:10:07.424Z,33.93
2019-04-29T06:11:07.419Z,33.93
2019-04-29T06:12:07.407Z,33.93
2019-04-29T06:13:08.103Z,33.12
2019-04-29T06:14:08.139Z,33.83
2019-04-29T06:15:07.390Z,33.93
2019-04-29T06:16:08.103Z,35.03
2019-04-29T06:17:07.828Z,35.53
2019-04-29T06:18:07.329Z,35.13
2019-04-29T06:19:07.314Z,35.44
2019-04-29T06:20:07.312Z,35.64
2019-04-29T06:21:09.240Z,36.15
2019-04-29T06:22:07.297Z,36.15
2019-04-29T06:23:07.284Z,36.76
2019-04-29T06:24:07.309Z,36.46
2019-04-29T06:25:08.117Z,36.48
2019-04-29T06:26:08.106Z,36.28
2019-04-29T06:27:07.222Z,36.68
2019-04-29T06:28:07.222Z,37.00
2019-04-29T06:29:07.200Z,37.28
2019-04-29T06:30:07.189Z,36.70
2019-04-29T06:31:07.177Z,37.70
2019-04-29T06:32:07.169Z,38.20
2019-04-29T06:33:07.199Z,38.12
2019-04-29T06:34:07.150Z,37.92
2019-04-29T06:35:10.530Z,38.22
2019-04-29T06:36:07.125Z,38.42
2019-04-29T06:37:07.154Z,37.62
2019-04-29T06:38:07.164Z,38.72
2019-04-29T06:39:07.092Z,38.02
2019-04-29T06:40:07.639Z,38.62
2019-04-29T06:41:09.676Z,39.03
2019-04-29T06:42:07.601Z,38.92
2019-04-29T06:43:07.152Z,38.12
2019-04-29T06:44:15.749Z,38.12
2019-04-29T06:45:07.026Z,39.03
2019-04-29T06:46:07.014Z,38.82
2019-04-29T06:47:07.010Z,38.82
2019-04-29T06:48:07.053Z,38.53
2019-04-29T06:49:10.392Z,38.12
2019-04-29T06:50:07.606Z,38.62
2019-04-29T06:51:06.959Z,38.31
2019-04-29T06:52:07.603Z,38.53
2019-04-29T06:53:06.995Z,38.42
2019-04-29T06:54:06.928Z,38.62
2019-04-29T06:55:06.987Z,38.42
2019-04-29T06:56:09.173Z,38.62
2019-04-29T06:57:06.896Z,38.42
2019-04-29T06:58:06.904Z,38.90
2019-04-29T06:59:07.456Z,38.62
2019-04-29T07:00:06.886Z,38.72
2019-04-29T07:01:06.867Z,38.53
2019-04-29T07:02:09.525Z,38.92
2019-04-29T07:03:06.842Z,38.82
2019-04-29T07:04:06.821Z,39.03
2019-04-29T07:05:06.805Z,39.53
2019-04-29T07:06:06.797Z,39.93
2019-04-29T07:07:06.797Z,39.81
2019-04-29T07:08:07.138Z,39.51
2019-04-29T07:09:06.766Z,39.81
2019-04-29T07:10:06.754Z,39.51
2019-04-29T07:11:06.784Z,39.81
2019-04-29T07:12:08.158Z,39.91
2019-04-29T07:13:06.742Z,39.81
2019-04-29T07:14:06.705Z,39.81
2019-04-29T07:15:07.574Z,39.61
2019-04-29T07:16:06.687Z,40.01
2019-04-29T07:17:07.643Z,39.89
2019-04-29T07:18:07.121Z,39.81
2019-04-29T07:19:07.622Z,39.81
2019-04-29T07:20:06.650Z,40.21
2019-04-29T07:21:07.469Z,39.79
2019-04-29T07:22:06.641Z,40.09
2019-04-29T07:23:06.647Z,40.39
2019-04-29T07:24:06.659Z,39.59
2019-04-29T07:25:06.594Z,40.09
2019-04-29T07:26:06.576Z,39.57
2019-04-29T07:27:06.575Z,39.47
2019-04-29T07:28:06.632Z,39.77
2019-04-29T07:29:06.563Z,39.87
2019-04-29T07:30:08.391Z,39.67
2019-04-29T07:31:06.525Z,39.97
2019-04-29T07:32:09.244Z,39.75
2019-04-29T07:33:06.515Z,40.35
2019-04-29T07:34:08.394Z,40.05
2019-04-29T07:35:09.814Z,39.95
2019-04-29T07:36:11.266Z,39.65
2019-04-29T07:37:06.477Z,39.53
2019-04-29T07:38:08.612Z,39.63
2019-04-29T07:39:07.152Z,39.53
2019-04-29T07:40:08.148Z,39.51
2019-04-29T07:41:09.907Z,38.81
2019-04-29T07:42:06.491Z,39.09
2019-04-29T07:43:07.751Z,39.20
2019-04-29T07:44:06.617Z,39.39
2019-04-29T07:45:06.371Z,39.50
2019-04-29T07:46:06.371Z,39.09
2019-04-29T07:47:06.344Z,39.39
2019-04-29T07:48:07.596Z,39.28
2019-04-29T07:49:06.367Z,39.28
2019-04-29T07:50:07.243Z,39.37
2019-04-29T07:51:06.300Z,39.18
2019-04-29T07:52:09.876Z,39.37
2019-04-29T07:53:06.286Z,38.98
2019-04-29T07:54:11.118Z,39.48
2019-04-29T07:55:06.261Z,38.46
2019-04-29T07:56:07.929Z,39.06
2019-04-29T07:57:06.240Z,39.46
2019-04-29T07:58:07.146Z,39.26
2019-04-29T07:59:06.225Z,38.26
2019-04-29T08:00:08.587Z,38.36
2019-04-29T08:01:06.197Z,38.16
2019-04-29T08:02:07.112Z,38.26
2019-04-29T08:03:06.181Z,38.66
2019-04-29T08:04:06.172Z,38.06
2019-04-29T08:05:09.115Z,38.54
2019-04-29T08:06:06.140Z,38.56
2019-04-29T08:07:07.162Z,39.26
2019-04-29T08:08:06.142Z,39.46
2019-04-29T08:09:07.848Z,38.34
2019-04-29T08:10:22.501Z,38.64
2019-04-29T08:11:06.086Z,39.24
2019-04-29T08:12:06.098Z,39.24
2019-04-29T08:13:06.070Z,39.14
2019-04-29T08:14:06.077Z,39.34
2019-04-29T08:15:07.916Z,39.04
2019-04-29T08:16:06.030Z,39.24
2019-04-29T08:17:06.607Z,39.34
2019-04-29T08:18:07.185Z,39.12
2019-04-29T08:19:06.018Z,38.94
2019-04-29T08:20:06.474Z,39.04
2019-04-29T08:21:05.984Z,39.04
2019-04-29T08:22:05.965Z,39.04
2019-04-29T08:23:05.959Z,38.94
2019-04-29T08:24:06.138Z,39.22
2019-04-29T08:25:06.623Z,39.02
2019-04-29T08:26:05.984Z,39.12
2019-04-29T08:27:05.912Z,39.32
2019-04-29T08:28:05.933Z,39.72
2019-04-29T08:29:05.912Z,39.32
2019-04-29T08:30:06.623Z,39.32
2019-04-29T08:31:05.876Z,39.32
2019-04-29T08:32:05.857Z,39.32
2019-04-29T08:33:07.594Z,39.32
2019-04-29T08:34:05.854Z,39.02
2019-04-29T08:35:05.822Z,39.02
2019-04-29T08:36:05.810Z,39.62
2019-04-29T08:37:05.804Z,39.32
2019-04-29T08:38:06.624Z,39.12
2019-04-29T08:39:08.801Z,39.02
2019-04-29T08:40:15.991Z,39.02
2019-04-29T08:41:05.764Z,38.31
2019-04-29T08:42:09.014Z,39.02
2019-04-29T08:43:05.758Z,38.60
2019-04-29T08:44:15.666Z,39.42
2019-04-29T08:45:05.728Z,39.42
2019-04-29T08:46:06.636Z,39.20
2019-04-29T08:47:05.694Z,39.30
2019-04-29T08:48:05.696Z,39.42
2019-04-29T08:49:07.622Z,38.32
2019-04-29T08:50:05.686Z,38.52
2019-04-29T08:51:05.650Z,38.20
2019-04-29T08:52:06.660Z,38.70
2019-04-29T08:53:05.689Z,38.02
2019-04-29T08:54:05.638Z,38.32
2019-04-29T08:55:05.630Z,38.40
2019-04-29T08:56:10.002Z,38.60
2019-04-29T08:57:05.591Z,38.31
2019-04-29T08:58:06.998Z,38.90
2019-04-29T08:59:05.579Z,39.00
2019-04-29T09:00:05.564Z,38.32
2019-04-29T09:01:05.544Z,39.20
2019-04-29T09:02:10.203Z,39.30
2019-04-29T09:03:05.522Z,38.50
2019-04-29T09:04:05.519Z,38.20
2019-04-29T09:05:06.854Z,38.40
2019-04-29T09:06:06.199Z,38.31
2019-04-29T09:07:12.855Z,38.20
2019-04-29T09:08:05.474Z,38.42
2019-04-29T09:09:10.594Z,38.22
2019-04-29T09:10:05.458Z,38.60
2019-04-29T09:11:08.099Z,38.20
2019-04-29T09:12:05.456Z,38.20
2019-04-29T09:13:06.142Z,38.70
2019-04-29T09:14:05.401Z,38.42
2019-04-29T09:15:05.455Z,38.40
2019-04-29T09:16:05.382Z,38.70
2019-04-29T09:17:19.733Z,38.60
2019-04-29T09:18:05.378Z,38.40
2019-04-29T09:19:05.360Z,38.80
2019-04-29T09:20:06.149Z,38.10
2019-04-29T09:21:05.324Z,38.40
2019-04-29T09:22:05.318Z,38.50
2019-04-29T09:23:08.060Z,38.20
2019-04-29T09:24:05.331Z,38.50
2019-04-29T09:25:05.320Z,38.50
2019-04-29T09:26:05.294Z,38.40
2019-04-29T09:27:09.661Z,38.40
2019-04-29T09:28:05.263Z,38.60
2019-04-29T09:29:05.551Z,38.40
2019-04-29T09:30:05.246Z,38.40
2019-04-29T09:31:05.216Z,38.40
2019-04-29T09:32:05.203Z,38.39
2019-04-29T09:33:08.900Z,38.68
2019-04-29T09:34:06.655Z,38.59
2019-04-29T09:35:05.647Z,38.60
2019-04-29T09:36:05.163Z,38.50
2019-04-29T09:37:06.122Z,38.40
2019-04-29T09:38:06.167Z,38.29
2019-04-29T09:39:06.148Z,38.68
2019-04-29T09:40:05.634Z,40.08
2019-04-29T09:41:05.616Z,39.98
2019-04-29T09:42:08.215Z,39.28
2019-04-29T09:43:15.229Z,39.68
2019-04-29T09:44:05.611Z,38.78
2019-04-29T09:45:05.083Z,38.59
2019-04-29T09:46:05.071Z,38.68
2019-04-29T09:47:08.618Z,38.48
2019-04-29T09:48:05.039Z,38.29
2019-04-29T09:49:05.652Z,38.48
2019-04-29T09:50:05.180Z,38.89
2019-04-29T09:51:16.708Z,38.59
2019-04-29T09:52:05.042Z,37.88
2019-04-29T09:53:04.981Z,38.18
2019-04-29T09:54:04.994Z,38.39
2019-04-29T09:55:05.843Z,38.59
2019-04-29T09:56:04.951Z,38.39
2019-04-29T09:57:04.943Z,38.59
2019-04-29T09:58:04.976Z,38.31
2019-04-29T09:59:04.915Z,38.18
2019-04-29T10:00:07.081Z,38.39
2019-04-29T10:01:04.896Z,38.48
2019-04-29T10:02:04.884Z,38.09
2019-04-29T10:03:05.616Z,37.79
2019-04-29T10:04:04.887Z,37.98
2019-04-29T10:05:04.924Z,37.68
2019-04-29T10:06:05.634Z,37.79
2019-04-29T10:07:04.829Z,37.88
2019-04-29T10:08:04.819Z,37.70
2019-04-29T10:09:04.812Z,37.88
2019-04-29T10:10:06.803Z,37.68
2019-04-29T10:11:04.817Z,37.59
2019-04-29T10:12:04.779Z,36.39
2019-04-29T10:13:04.789Z,36.19
2019-04-29T10:14:05.629Z,35.99
2019-04-29T10:15:05.670Z,36.51
2019-04-29T10:16:05.131Z,34.39
2019-04-29T10:17:04.735Z,34.89
2019-04-29T10:18:04.709Z,35.81
2019-04-29T10:19:05.338Z,36.11
2019-04-29T10:20:07.752Z,35.61
2019-04-29T10:21:04.690Z,35.11
2019-04-29T10:22:04.664Z,35.21
2019-04-29T10:23:04.656Z,35.31
2019-04-29T10:24:05.615Z,35.11
2019-04-29T10:25:04.646Z,35.21
2019-04-29T10:26:05.146Z,34.91
2019-04-29T10:27:07.102Z,35.31
2019-04-29T10:28:04.605Z,34.91
2019-04-29T10:29:04.590Z,35.21
2019-04-29T10:30:04.581Z,34.91
2019-04-29T10:31:04.582Z,34.81
2019-04-29T10:32:06.797Z,34.71
2019-04-29T10:33:04.547Z,35.11
2019-04-29T10:34:04.541Z,35.31
2019-04-29T10:35:08.869Z,36.11
2019-04-29T10:36:04.532Z,36.51
2019-04-29T10:37:04.507Z,37.90
2019-04-29T10:38:04.524Z,38.10
2019-04-29T10:39:04.501Z,38.00
2019-04-29T10:40:10.844Z,38.20
2019-04-29T10:41:04.473Z,38.60
2019-04-29T10:42:05.155Z,38.31
2019-04-29T10:43:05.115Z,38.20
2019-04-29T10:44:05.121Z,38.31
2019-04-29T10:45:04.431Z,38.00
2019-04-29T10:46:04.502Z,38.10
2019-04-29T10:47:04.399Z,38.40
2019-04-29T10:48:04.395Z,38.40
2019-04-29T10:49:05.287Z,38.31
2019-04-29T10:50:04.372Z,38.50
2019-04-29T10:51:04.387Z,38.60
2019-04-29T10:52:05.125Z,38.31
2019-04-29T10:53:05.126Z,38.40
2019-04-29T10:54:04.323Z,38.80
2019-04-29T10:55:05.144Z,38.40
2019-04-29T10:56:05.887Z,37.90
2019-04-29T10:57:04.290Z,38.10
2019-04-29T10:58:04.279Z,38.29
2019-04-29T10:59:09.128Z,38.39
2019-04-29T11:00:04.266Z,37.90
2019-04-29T11:01:04.663Z,38.09
2019-04-29T11:02:09.404Z,37.79
2019-04-29T11:03:04.232Z,37.98
2019-04-29T11:04:04.217Z,38.39
2019-04-29T11:05:07.820Z,38.39
2019-04-29T11:06:04.206Z,38.48
2019-04-29T11:07:13.845Z,38.50
2019-04-29T11:08:04.406Z,38.09
2019-04-29T11:09:04.226Z,38.09
2019-04-29T11:10:04.155Z,37.29
2019-04-29T11:11:04.656Z,37.81
2019-04-29T11:12:05.145Z,37.49
2019-04-29T11:13:04.132Z,38.39
2019-04-29T11:14:04.129Z,37.59
2019-04-29T11:15:04.098Z,37.68
2019-04-29T11:16:04.095Z,37.79
2019-04-29T11:17:04.095Z,38.00
2019-04-29T11:18:04.081Z,37.29
2019-04-29T11:19:05.501Z,37.98
2019-04-29T11:20:04.641Z,37.79
2019-04-29T11:21:04.140Z,37.79
2019-04-29T11:22:04.032Z,37.59
2019-04-29T11:23:04.013Z,37.79
2019-04-29T11:24:04.633Z,37.59
2019-04-29T11:25:03.989Z,37.79
2019-04-29T11:26:03.980Z,37.59
2019-04-29T11:27:11.588Z,37.79
2019-04-29T11:28:03.984Z,37.98
2019-04-29T11:29:07.358Z,37.88
2019-04-29T11:30:04.904Z,37.59
2019-04-29T11:31:03.940Z,37.70
2019-04-29T11:32:03.934Z,37.68
2019-04-29T11:33:04.671Z,37.49
2019-04-29T11:34:05.515Z,37.59
2019-04-29T11:35:04.637Z,37.68
2019-04-29T11:36:05.797Z,37.49
2019-04-29T11:37:03.916Z,37.49
2019-04-29T11:38:03.848Z,37.29
2019-04-29T11:39:04.634Z,37.88
2019-04-29T11:40:03.845Z,37.38
2019-04-29T11:41:03.814Z,37.98
2019-04-29T11:42:03.832Z,37.98
2019-04-29T11:43:03.796Z,37.59
2019-04-29T11:44:03.796Z,37.68
2019-04-29T11:45:03.878Z,37.59
2019-04-29T11:46:04.872Z,37.59
2019-04-29T11:47:03.777Z,37.68
2019-04-29T11:48:03.889Z,37.59
2019-04-29T11:49:04.639Z,37.88
2019-04-29T11:50:07.604Z,37.49
2019-04-29T11:51:03.734Z,36.59
2019-04-29T11:52:09.732Z,37.38
2019-04-29T11:53:03.696Z,36.59
2019-04-29T11:54:03.678Z,37.08
2019-04-29T11:55:04.643Z,37.19
2019-04-29T11:56:03.659Z,37.38
2019-04-29T11:57:03.650Z,37.59
2019-04-29T11:58:03.632Z,36.49
2019-04-29T11:59:03.738Z,37.38
2019-04-29T12:00:03.631Z,37.38
2019-04-29T12:01:08.161Z,37.38
2019-04-29T12:02:03.626Z,37.49
2019-04-29T12:03:04.135Z,37.49
2019-04-29T12:04:04.123Z,37.88
2019-04-29T12:05:08.214Z,36.29
2019-04-29T12:06:03.589Z,36.59
2019-04-29T12:07:03.545Z,36.89
2019-04-29T12:08:11.207Z,36.09
2019-04-29T12:09:06.550Z,36.39
2019-04-29T12:10:06.499Z,36.29
2019-04-29T12:11:07.222Z,36.29
2019-04-29T12:12:03.496Z,36.01
2019-04-29T12:13:03.496Z,36.01
2019-04-29T12:14:04.645Z,35.79
2019-04-29T12:15:03.452Z,35.29
2019-04-29T12:16:04.135Z,34.99
2019-04-29T12:17:03.580Z,35.39
2019-04-29T12:18:03.436Z,35.29
2019-04-29T12:19:03.421Z,33.81
2019-04-29T12:20:03.402Z,33.90
2019-04-29T12:21:03.449Z,34.11
2019-04-29T12:22:04.915Z,34.11
2019-04-29T12:23:03.671Z,33.91
2019-04-29T12:24:04.128Z,34.01
2019-04-29T12:25:03.344Z,33.31
2019-04-29T12:26:04.977Z,33.91
2019-04-29T12:27:04.131Z,33.81
2019-04-29T12:28:18.138Z,34.01
2019-04-29T12:29:03.335Z,34.01
2019-04-29T12:30:03.293Z,33.91
2019-04-29T12:31:05.751Z,33.91
2019-04-29T12:32:03.278Z,34.11
2019-04-29T12:33:03.644Z,33.81
2019-04-29T12:34:03.271Z,34.03
2019-04-29T12:35:03.241Z,33.42
2019-04-29T12:36:05.216Z,33.61
2019-04-29T12:37:04.133Z,33.31
2019-04-29T12:38:05.896Z,33.01
2019-04-29T12:39:03.299Z,32.22
2019-04-29T12:40:03.196Z,32.63
2019-04-29T12:41:03.193Z,32.73
2019-04-29T12:42:04.415Z,32.14
2019-04-29T12:43:03.156Z,32.63
2019-04-29T12:44:03.159Z,33.43
2019-04-29T12:45:03.645Z,32.33
2019-04-29T12:46:03.121Z,33.35
2019-04-29T12:47:03.110Z,33.25
2019-04-29T12:48:06.360Z,32.75
2019-04-29T12:49:03.607Z,33.45
2019-04-29T12:50:03.077Z,33.45
2019-04-29T12:51:03.793Z,33.25
2019-04-29T12:52:03.067Z,33.35